Time;durP1;ratioP1;P1;durP2;ratioP2;P2;SDS_P1;SDS_P2;PMS_P1;PMS_P2;Temp;Humidity;BMP_temperature;BMP_pressure;BME280_temperature;BME280_humidity;BME280_pressure;Samples;Min_cycle;Max_cycle;Signal;HPM_P1;HPM_P2
2022/01/20 00:02:01;;;;;;;8.65;4.15;;;4.20;1.00;;;4.10;74.26;100640.47;4974473;28;20274;-68
2022/01/20 00:04:40;;;;;;;10.93;3.35;;;4.10;1.00;;;3.94;74.69;100636.78;4974794;28;20551;-69
2022/01/20 00:26:30;;;;;;;25.58;3.90;;;3.60;1.00;;;3.71;74.47;100650.97;4962029;28;20553;-70
2022/01/20 00:29:01;;;;;;;8.32;2.70;;;3.70;1.00;;;3.68;74.20;100652.13;4974048;28;20211;-69
2022/01/20 00:31:44;;;;;;;17.88;3.75;;;3.70;1.00;;;3.68;74.51;100652.13;4973919;28;20567;-67
2022/01/20 00:34:16;;;;;;;15.88;3.85;;;3.70;1.00;;;3.68;75.37;100660.13;4974459;28;20182;-70
2022/01/20 00:39:32;;;;;;;8.73;3.35;;;3.70;1.00;;;3.70;76.52;100655.47;4974674;28;20235;-69
2022/01/20 00:42:01;;;;;;;16.55;4.05;;;3.70;73.40;;;3.62;76.92;100643.91;4976123;28;20190;-67
2022/01/20 00:44:29;;;;;;;20.52;4.50;;;3.70;99.90;;;3.64;77.49;100641.91;4976232;28;20191;-69
2022/01/20 00:46:58;;;;;;;14.50;7.03;;;3.60;99.90;;;3.64;77.87;100637.38;4974178;28;20172;-70
2022/01/20 00:49:27;;;;;;;12.05;4.10;;;3.60;1.00;;;3.65;77.87;100647.09;4956145;28;20219;-70
2022/01/20 00:51:55;;;;;;;20.70;6.15;;;3.70;1.00;;;3.65;77.72;100656.97;4956328;28;20238;-72
2022/01/20 00:54:23;;;;;;;22.38;4.05;;;3.70;1.00;;;3.66;77.47;100658.63;4973658;28;20658;-69
2022/01/20 00:56:53;;;;;;;15.60;4.03;;;3.70;1.00;;;3.62;77.77;100658.13;4973352;28;20179;-70
2022/01/20 00:59:22;;;;;;;12.82;5.20;;;3.60;1.00;;;3.63;77.54;100669.69;4973565;28;20303;-67
2022/01/20 01:01:51;;;;;;;17.95;4.75;;;3.60;1.00;;;3.63;76.87;100665.13;4956360;28;20203;-69
2022/01/20 01:04:21;;;;;;;11.38;3.47;;;3.60;99.90;;;3.63;76.21;100659.78;4972366;28;20183;-68
2022/01/20 01:07:08;;;;;;;14.27;4.50;;;3.60;99.90;;;3.57;76.43;100663.13;4956450;28;20226;-69
2022/01/20 01:09:39;;;;;;;22.05;3.85;;;3.60;99.90;;;3.61;75.28;100687.72;4955677;28;20215;-68
2022/01/20 01:12:15;;;;;;;9.98;3.45;;;3.60;1.00;;;3.53;75.24;100675.16;4972938;28;20238;-69
2022/01/20 01:14:48;;;;;;;17.63;2.88;;;3.60;1.00;;;3.52;75.00;100662.78;4972991;28;20829;-69
2022/01/20 01:20:19;;;;;;;28.02;3.65;;;3.50;1.00;;;3.51;74.26;100679.84;4972942;28;20258;-68
2022/01/20 01:22:47;;;;;;;11.50;2.22;;;3.50;1.00;;;3.48;74.41;100674.81;4973104;28;20187;-70
2022/01/20 01:25:16;;;;;;;26.90;4.70;;;3.50;1.00;;;3.50;74.58;100683.50;4971573;28;20191;-70
2022/01/20 01:27:46;;;;;;;21.85;3.53;;;3.50;1.00;;;3.45;74.40;100684.00;4973105;28;20222;-71
2022/01/20 01:30:36;;;;;;;12.75;3.40;;;3.50;1.00;;;3.46;74.53;100695.53;4955739;28;20250;-68
2022/01/20 01:33:07;;;;;;;16.02;4.20;;;3.50;1.00;;;3.39;74.59;100706.03;4955338;28;20191;-70
2022/01/20 01:35:39;;;;;;;12.55;3.00;;;3.50;1.00;;;3.35;74.73;100699.31;4955361;28;20236;-67
2022/01/20 01:38:36;;;;;;;14.55;3.28;;;3.40;1.00;;;3.31;74.46;100686.44;4955541;28;20326;-69
2022/01/20 01:41:10;;;;;;;10.68;4.13;;;3.40;1.00;;;3.29;73.87;100699.97;4973328;28;20199;-69
2022/01/20 01:43:43;;;;;;;20.50;3.55;;;3.30;1.00;;;3.25;73.36;100703.09;4972988;28;20647;-68
2022/01/20 01:46:14;;;;;;;21.98;4.22;;;3.30;1.00;;;3.28;73.26;100697.47;4972510;28;20278;-69
2022/01/20 01:48:45;;;;;;;13.77;4.38;;;3.30;99.90;;;3.22;73.67;100682.03;4971260;28;20215;-70
2022/01/20 01:51:15;;;;;;;14.02;3.60;;;3.30;1.00;;;3.17;73.83;100695.91;4976709;28;20742;-68
2022/01/20 01:53:47;;;;;;;17.63;3.42;;;3.20;1.00;;;3.12;74.05;100698.22;4972778;28;20252;-70
2022/01/20 01:56:16;;;;;;;14.60;3.22;;;3.20;1.00;;;3.16;72.65;100699.56;4971258;28;20278;-69
2022/01/20 01:58:45;;;;;;;10.38;3.45;;;3.20;99.90;;;3.09;72.97;100695.03;4967994;28;20589;-69
2022/01/20 02:01:17;;;;;;;20.20;3.85;;;3.20;99.90;;;3.01;73.26;100704.66;4961914;28;20215;-69
2022/01/20 02:03:57;;;;;;;21.98;5.20;;;3.10;99.90;;;3.03;72.47;100693.81;4978303;28;20198;-68
2022/01/20 02:06:51;;;;;;;23.95;3.72;;;3.10;99.90;;;3.05;71.38;100698.00;4962196;28;20198;-71
2022/01/20 02:09:37;;;;;;;15.02;3.65;;;3.10;99.90;;;3.05;71.51;100687.31;4979175;28;20219;-68
2022/01/20 02:17:51;;;;;;;9.30;2.83;;;3.10;99.90;;;3.03;70.51;100700.00;4980609;28;20585;-68
2022/01/20 02:20:21;;;;;;;9.20;3.25;;;3.10;99.90;;;3.02;71.04;100698.31;4980471;28;20210;-69
2022/01/20 02:22:57;;;;;;;16.10;3.90;;;3.10;99.90;;;2.98;71.12;100707.66;4962783;28;20589;-68
2022/01/20 02:25:33;;;;;;;18.30;4.13;;;3.10;99.90;;;3.00;71.19;100700.31;4962117;28;20199;-68
2022/01/20 02:28:06;;;;;;;17.33;4.05;;;3.00;99.90;;;2.92;71.41;100699.41;4979395;28;20246;-68
2022/01/20 02:30:36;;;;;;;10.57;3.42;;;3.00;99.90;;;2.86;71.49;100682.19;4979830;28;20191;-69
2022/01/20 02:33:10;;;;;;;18.00;3.60;;;2.90;99.90;;;2.85;70.90;100677.00;4979746;28;20184;-67
2022/01/20 02:35:46;;;;;;;10.68;3.85;;;2.90;99.90;;;2.79;70.71;100674.97;4961676;28;20278;-68
2022/01/20 02:38:25;;;;;;;18.20;4.38;;;2.90;99.90;;;2.77;70.73;100668.91;4978619;28;20238;-68
2022/01/20 02:46:26;;;;;;;10.63;4.32;;;2.80;99.90;;;2.68;70.64;100668.03;4961906;28;20378;-70
2022/01/20 02:48:55;;;;;;;14.25;3.42;;;2.70;99.90;;;2.68;70.42;100665.38;4979388;28;20214;-70
2022/01/20 02:51:25;;;;;;;7.05;2.33;;;2.70;99.90;;;2.65;70.22;100660.34;4963233;28;20632;-69
2022/01/20 02:53:57;;;;;;;11.88;2.83;;;2.70;99.90;;;2.64;69.68;100653.31;4963134;28;20685;-70
2022/01/20 02:56:26;;;;;;;13.88;2.60;;;2.70;99.90;;;2.62;69.48;100663.31;4978927;28;20266;-69
2022/01/20 02:58:54;;;;;;;11.98;3.90;;;2.70;99.90;;;2.57;69.50;100665.63;4978492;28;20211;-69
2022/01/20 03:01:22;;;;;;;12.95;3.15;;;2.60;99.90;;;2.55;69.41;100654.25;4962366;28;20215;-69
2022/01/20 03:03:53;;;;;;;12.90;2.70;;;2.60;99.90;;;2.54;69.23;100644.56;4976055;28;20196;-68
2022/01/20 03:06:21;;;;;;;9.23;2.67;;;2.60;99.90;;;2.55;69.34;100638.22;4959846;28;20198;-69
2022/01/20 03:08:51;;;;;;;13.68;2.88;;;2.60;99.90;;;2.51;69.88;100651.06;4957867;28;20298;-68
2022/01/20 03:11:20;;;;;;;6.32;2.75;;;2.60;99.90;;;2.57;69.70;100639.75;4957720;28;20183;-69
2022/01/20 03:13:48;;;;;;;14.25;3.42;;;2.60;99.90;;;2.60;69.93;100649.28;4958412;28;20697;-70
2022/01/20 03:16:17;;;;;;;13.35;3.72;;;2.60;99.90;;;2.56;70.14;100635.41;4958645;28;20199;-69
2022/01/20 03:18:45;;;;;;;9.60;3.08;;;2.60;99.90;;;2.57;70.05;100644.25;4975953;28;20215;-68
2022/01/20 03:21:14;;;;;;;17.23;3.60;;;2.60;99.90;;;2.66;69.99;100648.66;4977864;28;20200;-70
2022/01/20 03:23:43;;;;;;;5.25;2.53;;;2.60;99.90;;;2.74;70.24;100646.03;4961292;28;20344;-68
2022/01/20 03:26:14;;;;;;;8.85;2.60;;;2.70;99.90;;;2.82;70.10;100643.41;4974185;28;20278;-69
2022/01/20 03:28:44;;;;;;;16.10;3.30;;;2.80;99.90;;;2.94;70.08;100646.66;4973745;28;20725;-69
2022/01/20 03:31:12;;;;;;;9.27;3.28;;;2.90;99.90;;;2.91;70.01;100661.16;4973843;28;20188;-67
2022/01/20 03:33:41;;;;;;;13.32;3.30;;;2.90;99.90;;;2.63;73.02;100644.47;4973545;28;20206;-69
2022/01/20 03:36:09;;;;;;;17.75;4.88;;;2.80;99.90;;;2.35;74.99;100628.75;4973576;28;20227;-70
2022/01/20 03:39:01;;;;;;;12.32;3.40;;;2.50;1.00;;;2.24;75.61;100620.97;4957559;28;20213;-70
2022/01/20 03:41:31;;;;;;;16.30;3.63;;;2.40;1.00;;;2.34;75.84;100627.91;4957670;28;20211;-68
2022/01/20 03:44:06;;;;;;;21.55;3.50;;;2.40;1.00;;;2.31;75.57;100622.03;4973808;28;20184;-68
2022/01/20 03:46:35;;;;;;;12.25;3.17;;;2.40;1.00;;;2.36;75.45;100609.06;4975125;28;20226;-69
2022/01/20 03:49:09;;;;;;;12.88;3.00;;;2.40;1.00;;;2.44;75.96;100615.28;4974960;28;20239;-69
2022/01/20 03:51:38;;;;;;;14.35;3.28;;;2.40;16.30;;;2.53;75.28;100613.50;4976464;28;20167;-68
2022/01/20 03:54:07;;;;;;;14.50;3.28;;;2.50;1.00;;;2.55;74.47;100603.50;4960210;28;20719;-69
2022/01/20 03:56:57;;;;;;;16.60;3.60;;;2.50;1.00;;;2.56;74.03;100598.03;4976149;28;20221;-68
2022/01/20 03:59:46;;;;;;;19.33;3.55;;;2.60;1.00;;;2.61;73.94;100586.84;4955580;28;20593;-68
2022/01/20 04:02:20;;;;;;;12.27;4.30;;;2.60;1.00;;;2.63;73.36;100585.69;4958079;28;20592;-68
2022/01/20 04:04:57;;;;;;;8.38;3.05;;;2.60;99.90;;;2.68;73.44;100569.19;4978677;28;20187;-68
2022/01/20 04:07:30;;;;;;;24.75;3.33;;;2.70;99.90;;;2.68;73.11;100554.97;4965401;28;20200;-69
2022/01/20 04:09:59;;;;;;;23.60;4.15;;;2.70;99.90;;;2.78;73.11;100545.84;4965437;28;20196;-69
2022/01/20 04:12:28;;;;;;;16.80;4.18;;;2.70;99.90;;;2.79;72.56;100552.03;4966090;28;20203;-69
2022/01/20 04:15:00;;;;;;;19.20;3.95;;;2.80;99.90;;;2.75;72.79;100551.53;4966546;28;20200;-69
2022/01/20 04:17:28;;;;;;;18.88;4.97;;;2.80;99.90;;;2.87;71.94;100566.25;4967699;28;20395;-69
2022/01/20 04:19:56;;;;;;;11.52;3.40;;;2.80;99.90;;;2.83;71.99;100580.94;4967791;28;20456;-70
2022/01/20 04:22:26;;;;;;;16.27;3.90;;;2.90;99.90;;;2.68;74.13;100592.38;4965675;28;20222;-69
2022/01/20 04:24:55;;;;;;;14.07;5.28;;;2.80;99.90;;;2.16;76.89;100638.63;4973053;28;20188;-70
2022/01/20 04:27:23;;;;;;;5.30;2.83;;;2.40;1.00;;;1.50;79.84;100662.13;4972718;28;20228;-68
2022/01/20 04:29:53;;;;;;;10.18;2.20;;;1.90;1.00;;;1.16;80.17;100677.06;4974668;28;20635;-68
2022/01/20 04:32:24;;;;;;;8.10;1.30;;;1.40;1.00;;;1.00;80.81;100676.84;5078309;23;20678;-67
2022/01/20 04:34:54;;;;;;;8.10;2.53;;;1.20;1.00;;;0.83;80.44;100675.75;4950184;29;20223;-67
2022/01/20 04:37:22;;;;;;;7.85;2.08;;;1.00;99.90;;;0.70;80.61;100664.59;4957244;29;20235;-66
2022/01/20 04:39:51;;;;;;;8.38;1.88;;;0.90;99.90;;;0.65;80.31;100667.69;4939881;29;20267;-66
2022/01/20 04:42:21;;;;;;;7.25;2.30;;;0.80;99.90;;;0.67;79.54;100651.56;4955544;28;20208;-66
2022/01/20 04:44:55;;;;;;;13.43;1.83;;;0.70;99.90;;;0.65;79.71;100641.06;4982898;23;20180;-73
2022/01/20 04:47:34;;;;;;;10.73;2.22;;;0.70;1.00;;;0.67;79.86;100648.91;4975367;28;20196;-73
2022/01/20 04:58:21;;;;;;;10.30;2.03;;;0.70;1.00;;;0.73;78.17;100648.31;4976303;28;20221;-73
2022/01/20 05:00:51;;;;;;;5.47;2.10;;;0.80;99.90;;;0.82;77.55;100652.78;4976309;28;20183;-74
2022/01/20 05:03:42;;;;;;;12.93;2.05;;;0.80;99.90;;;0.81;76.79;100648.44;4972438;28;20207;-73
2022/01/20 05:06:22;;;;;;;7.03;2.53;;;0.80;1.00;;;0.86;76.21;100659.50;4975487;28;20190;-73
2022/01/20 05:08:52;;;;;;;14.15;2.97;;;0.90;99.90;;;0.86;76.59;100659.50;4975251;28;20265;-73
2022/01/20 05:11:21;;;;;;;5.18;2.13;;;0.90;99.90;;;0.97;77.14;100650.50;4975396;28;20183;-73
2022/01/20 05:13:49;;;;;;;8.05;2.00;;;1.00;1.00;;;1.08;76.74;100672.44;4975409;28;20199;-72
2022/01/20 05:16:17;;;;;;;4.10;1.95;;;1.10;1.00;;;1.02;75.98;100665.03;4975017;28;20191;-73
2022/01/20 05:18:52;;;;;;;8.05;2.53;;;1.10;99.90;;;1.10;74.89;100672.31;4992797;28;20207;-73
2022/01/20 05:21:21;;;;;;;22.25;2.25;;;1.10;12.10;;;1.12;74.58;100673.81;5007738;28;20696;-73
2022/01/20 05:23:49;;;;;;;9.32;1.75;;;1.20;1.00;;;1.15;74.84;100676.22;4975041;28;20615;-73
2022/01/20 05:26:18;;;;;;;13.68;2.10;;;1.20;1.00;;;1.11;75.47;100664.19;4975197;28;20201;-73
2022/01/20 05:28:46;;;;;;;7.25;2.38;;;1.20;1.00;;;1.08;76.40;100643.13;4976387;28;20253;-73
2022/01/20 05:31:15;;;;;;;4.85;2.13;;;1.20;99.90;;;1.09;76.96;100638.63;4978795;28;20273;-73
2022/01/20 05:33:49;;;;;;;9.00;2.15;;;1.20;99.90;;;1.17;76.79;100638.72;4978780;28;20233;-74
2022/01/20 05:36:24;;;;;;;8.50;2.03;;;1.20;99.90;;;1.08;75.91;100634.28;4978905;28;20186;-73
2022/01/20 05:38:54;;;;;;;7.50;2.38;;;1.20;99.90;;;1.05;77.14;100638.09;4978963;28;20301;-73
2022/01/20 05:41:23;;;;;;;9.40;3.40;;;1.20;99.90;;;1.05;76.37;100643.44;4975337;28;20190;-73
2022/01/20 05:43:57;;;;;;;18.10;4.82;;;1.10;99.90;;;1.15;76.52;100649.56;4975244;28;20609;-73
2022/01/20 05:46:34;;;;;;;7.45;2.05;;;1.20;99.90;;;1.26;75.71;100652.00;4975423;28;20293;-73
2022/01/20 05:49:08;;;;;;;4.20;1.75;;;1.20;99.90;;;1.34;74.58;100639.78;4975246;28;20297;-72
2022/01/20 05:51:57;;;;;;;9.40;2.50;;;1.30;1.00;;;1.38;74.30;100646.50;4975196;28;20224;-73
2022/01/20 05:54:26;;;;;;;10.48;2.25;;;1.40;1.00;;;1.41;74.13;100638.19;4992443;28;20662;-73
2022/01/20 05:56:54;;;;;;;9.65;1.88;;;1.40;1.00;;;1.43;73.56;100657.53;4975112;28;20190;-73
2022/01/20 05:59:23;;;;;;;6.28;2.42;;;1.50;1.00;;;1.50;73.74;100645.31;5007660;28;20214;-71
2022/01/20 06:01:55;;;;;;;6.18;2.95;;;1.50;1.00;;;1.56;72.69;100650.03;4975600;28;20760;-72
2022/01/20 06:04:26;;;;;;;9.70;3.42;;;1.60;99.90;;;1.58;73.27;100653.38;5008163;28;20228;-72
2022/01/20 06:06:56;;;;;;;9.82;3.17;;;1.60;99.90;;;1.62;72.82;100650.28;4975594;28;20221;-72
2022/01/20 06:09:24;;;;;;;11.25;2.45;;;1.60;99.90;;;1.61;72.56;100658.41;4974900;28;20218;-74
2022/01/20 06:11:53;;;;;;;12.75;2.25;;;1.70;99.90;;;1.64;72.75;100698.13;4975137;28;20199;-74
2022/01/20 06:14:23;;;;;;;8.23;2.58;;;1.60;99.90;;;1.59;72.44;100711.09;4991508;28;20175;-73
2022/01/20 06:16:52;;;;;;;12.70;4.95;;;1.60;99.90;;;1.44;71.23;100709.91;4988437;28;20198;-74
2022/01/20 06:19:20;;;;;;;4.35;2.13;;;1.50;99.90;;;1.21;71.66;100704.13;4990853;28;20288;-74
2022/01/20 06:21:48;;;;;;;7.30;2.03;;;1.40;99.90;;;1.14;71.35;100698.50;4990608;28;20219;-73
2022/01/20 06:24:19;;;;;;;7.18;3.28;;;1.30;99.90;;;1.14;68.82;100721.66;4992085;28;20179;-74
2022/01/20 06:26:48;;;;;;;6.13;2.33;;;1.20;99.90;;;1.12;68.79;100734.28;4991083;28;20198;-74
2022/01/20 06:29:16;;;;;;;10.48;2.72;;;1.20;99.90;;;1.11;66.93;100714.81;4991705;28;20265;-73
2022/01/20 06:31:45;;;;;;;19.80;2.72;;;1.20;99.90;;;1.12;67.33;100728.94;4990443;28;20191;-73
2022/01/20 06:34:14;;;;;;;12.63;2.67;;;1.20;99.90;;;1.15;65.63;100740.19;4990649;28;20218;-73
2022/01/20 06:36:42;;;;;;;6.25;2.30;;;1.20;99.90;;;1.14;64.65;100727.84;4991041;28;20191;-74
2022/01/20 06:39:13;;;;;;;6.82;1.63;;;1.20;99.90;;;1.16;62.30;100744.50;4988668;28;20222;-74
2022/01/20 06:41:44;;;;;;;10.82;3.72;;;1.20;99.90;;;1.12;62.29;100729.78;4978777;28;20282;-73
2022/01/20 06:44:14;;;;;;;6.65;1.80;;;1.20;99.90;;;1.14;60.88;100751.81;4978223;28;20194;-74
2022/01/20 06:46:43;;;;;;;5.70;1.75;;;1.20;99.90;;;1.11;61.35;100776.09;4978930;28;20257;-74
2022/01/20 06:49:18;;;;;;;9.13;2.30;;;1.20;99.90;;;1.06;62.22;100765.03;4978715;28;20242;-73
2022/01/20 06:51:58;;;;;;;6.45;1.67;;;1.20;99.90;;;1.02;61.45;100786.75;4978667;28;20731;-73
2022/01/20 06:54:27;;;;;;;6.93;2.13;;;1.10;99.90;;;1.05;61.24;100791.81;4978956;28;20258;-74
2022/01/20 06:56:59;;;;;;;7.47;2.00;;;1.10;99.90;;;1.07;61.31;100798.69;4978419;28;20202;-74
2022/01/20 06:59:28;;;;;;;5.50;1.65;;;1.10;99.90;;;1.08;61.19;100802.19;4979814;28;20215;-74
2022/01/20 07:01:58;;;;;;;6.10;1.42;;;1.10;99.90;;;1.11;60.40;100808.09;4997334;28;20187;-74
2022/01/20 07:04:32;;;;;;;7.20;3.90;;;1.10;99.90;;;1.08;61.25;100813.69;4978863;28;20186;-73
2022/01/20 07:07:02;;;;;;;7.25;4.28;;;1.20;99.90;;;0.74;67.50;100836.44;4990739;28;20282;-73
2022/01/20 07:10:00;;;;;;;14.23;3.92;;;1.00;99.90;;;0.19;70.77;100852.09;4985930;28;20270;-74
2022/01/20 07:12:42;;;;;;;6.32;1.95;;;0.50;99.90;;;0.00;72.65;100852.03;4993684;28;20179;-74
2022/01/20 07:15:14;;;;;;;12.48;5.88;;;0.20;99.90;;;-0.07;73.84;100867.69;4994241;28;20203;-73
2022/01/20 07:17:43;;;;;;;17.05;9.32;;;0.10;99.90;;;-0.14;73.60;100871.00;4993961;28;20249;-73
2022/01/20 07:20:14;;;;;;;20.20;14.57;;;0.00;99.90;;;-0.33;74.22;100890.38;4993605;28;20219;-73
2022/01/20 07:23:06;;;;;;;3.42;1.42;;;-0.10;1.00;;;-0.40;74.50;100893.72;4995368;28;20542;-73
2022/01/20 07:25:46;;;;;;;29.77;18.20;;;-0.20;1.00;;;-0.41;74.85;100881.38;4978014;28;20186;-73
2022/01/20 07:28:18;;;;;;;35.15;21.70;;;-0.30;1.00;;;-0.47;75.10;100882.75;4977869;28;20250;-74
2022/01/20 07:30:48;;;;;;;10.73;2.55;;;-0.30;1.00;;;-0.53;75.15;100889.44;4978432;28;20198;-73
2022/01/20 07:33:19;;;;;;;3.65;3.28;;;-0.40;1.00;;;-0.44;73.76;100904.59;4978044;28;20189;-74
2022/01/20 07:35:53;;;;;;;11.60;4.93;;;-0.30;1.00;;;-0.31;71.97;100901.72;4978464;28;20330;-74
2022/01/20 07:38:22;;;;;;;5.32;1.88;;;-0.30;99.90;;;-0.24;71.27;100896.75;4978572;28;20631;-73
2022/01/20 07:40:52;;;;;;;4.88;2.20;;;-0.20;99.90;;;-0.18;70.83;100901.50;4974575;28;20693;-74
2022/01/20 07:43:22;;;;;;;18.13;2.20;;;-0.10;99.90;;;-0.12;69.77;100906.31;4974590;28;20577;-74
2022/01/20 07:45:56;;;;;;;5.00;1.50;;;-0.10;99.90;;;0.00;69.80;100905.25;4974702;28;20203;-73
2022/01/20 07:48:31;;;;;;;11.23;2.55;;;0.00;99.90;;;0.06;69.12;100906.50;4973899;28;20636;-74
2022/01/20 07:51:08;;;;;;;6.68;1.95;;;0.10;99.90;;;0.12;69.83;100909.47;4975978;28;20179;-73
2022/01/20 07:53:39;;;;;;;3.25;1.85;;;0.20;99.90;;;0.15;67.71;100906.53;4976854;28;20191;-73
2022/01/20 07:56:09;;;;;;;4.18;1.70;;;0.20;99.90;;;0.22;66.76;100901.53;4977321;28;20191;-73
2022/01/20 07:58:44;;;;;;;9.35;2.00;;;0.30;99.90;;;0.32;66.59;100905.91;4976345;28;20214;-73
2022/01/20 08:01:12;;;;;;;6.38;2.10;;;0.40;99.90;;;0.49;64.80;100916.84;4977435;28;20191;-72
2022/01/20 08:03:56;;;;;;;10.35;1.75;;;0.50;99.90;;;0.70;64.26;100920.25;4977438;28;20234;-72
2022/01/20 08:06:28;;;;;;;14.18;2.15;;;0.70;99.90;;;0.87;63.30;100932.94;4977610;28;20187;-72
2022/01/20 08:09:06;;;;;;;10.63;2.63;;;0.80;99.90;;;0.98;62.51;100945.25;4984423;28;20222;-72
2022/01/20 08:11:39;;;;;;;7.90;2.15;;;1.00;99.90;;;0.94;62.17;100931.38;4996999;28;20669;-72
2022/01/20 08:14:28;;;;;;;11.27;3.05;;;1.00;99.90;;;1.01;61.34;100952.97;5014748;28;20209;-73
2022/01/20 08:16:56;;;;;;;12.15;4.07;;;1.00;99.90;;;1.11;60.76;100936.03;4996929;28;20186;-73
2022/01/20 08:19:26;;;;;;;9.00;3.13;;;1.10;99.90;;;1.23;61.31;100934.88;4996587;28;20750;-73
2022/01/20 08:21:54;;;;;;;13.85;3.70;;;1.20;99.90;;;1.34;60.54;100957.88;4996919;28;20222;-72
2022/01/20 08:24:23;;;;;;;14.18;4.30;;;1.30;99.90;;;1.37;60.57;100952.25;4996697;28;20744;-72
2022/01/20 08:26:55;;;;;;;7.80;2.17;;;1.40;99.90;;;1.25;60.36;100950.75;4996823;28;20236;-71
2022/01/20 08:29:25;;;;;;;8.40;2.97;;;1.30;99.90;;;1.25;59.97;100953.41;4997242;28;20722;-73
2022/01/20 08:31:54;;;;;;;8.10;2.30;;;1.30;99.90;;;1.32;60.35;100943.84;5000468;28;20186;-72
2022/01/20 08:34:36;;;;;;;9.30;3.40;;;1.30;99.90;;;1.23;60.69;100956.22;4997074;28;20277;-73
2022/01/20 08:37:34;;;;;;;9.43;2.83;;;1.30;99.90;;;1.11;60.23;100954.69;5002739;28;20521;-73
2022/01/20 08:40:08;;;;;;;9.52;2.75;;;1.20;99.90;;;1.13;60.45;100949.19;5014148;28;20174;-73
2022/01/20 08:42:37;;;;;;;7.60;2.97;;;1.20;99.90;;;1.16;59.83;100944.41;4996524;28;20571;-73
2022/01/20 08:45:11;;;;;;;10.10;2.97;;;1.20;99.90;;;1.28;60.21;100953.97;4996161;28;20245;-72
2022/01/20 08:47:39;;;;;;;10.63;2.97;;;1.30;99.90;;;1.23;60.39;100956.22;4995966;28;20214;-72
2022/01/20 08:50:12;;;;;;;12.70;3.08;;;1.30;99.90;;;1.39;60.12;100970.81;5013627;28;20188;-72
2022/01/20 08:52:46;;;;;;;14.68;3.38;;;1.40;99.90;;;1.53;59.75;100973.88;5012495;28;20208;-73
2022/01/20 08:55:17;;;;;;;9.45;3.13;;;1.50;99.90;;;1.68;59.96;100967.13;4995774;28;20198;-72
2022/01/20 08:57:54;;;;;;;15.07;2.65;;;1.60;99.90;;;1.70;58.95;100954.47;4995960;28;20240;-74
2022/01/20 09:00:29;;;;;;;18.40;3.80;;;1.70;99.90;;;1.85;58.88;100956.66;4995538;28;20202;-74
2022/01/20 09:03:02;;;;;;;5.32;2.90;;;1.90;99.90;;;1.91;58.51;100956.94;4996174;28;20707;-72
2022/01/20 09:05:32;;;;;;;17.90;3.42;;;1.90;99.90;;;2.04;58.45;100957.47;4996001;28;20194;-73
2022/01/20 09:08:12;;;;;;;6.40;2.63;;;2.00;99.90;;;1.99;57.53;100954.38;4995779;28;20250;-72
2022/01/20 09:10:51;;;;;;;13.93;3.70;;;2.00;99.90;;;2.00;57.70;100974.75;4997644;28;20220;-73
2022/01/20 09:16:15;;;;;;;8.27;4.75;;;2.00;99.90;;;2.16;58.73;100983.00;4996464;28;20637;-73
2022/01/20 09:18:55;;;;;;;15.32;3.10;;;2.10;99.90;;;1.92;58.52;100971.97;4995792;28;20206;-73
2022/01/20 09:21:26;;;;;;;18.52;3.88;;;2.00;99.90;;;1.91;58.01;100972.97;5013708;28;20569;-73
2022/01/20 09:23:59;;;;;;;13.10;3.67;;;2.00;99.90;;;1.84;58.74;100971.84;4995788;28;20209;-73
2022/01/20 09:26:28;;;;;;;15.90;3.90;;;1.90;99.90;;;1.95;58.71;100974.34;4995521;28;20217;-72
2022/01/20 09:29:00;;;;;;;11.00;3.95;;;2.00;99.90;;;1.93;58.86;100986.16;4995110;28;20214;-72
2022/01/20 09:31:37;;;;;;;12.00;3.38;;;1.90;99.90;;;1.96;58.67;100978.69;4995621;28;20194;-73
2022/01/20 09:34:09;;;;;;;7.90;2.78;;;2.00;99.90;;;1.98;59.30;100978.56;4995604;28;20536;-72
2022/01/20 09:36:42;;;;;;;10.07;3.15;;;2.00;99.90;;;1.99;58.65;100991.75;4995633;28;20186;-72
2022/01/20 09:39:10;;;;;;;8.95;2.83;;;2.00;99.90;;;1.90;59.10;101005.97;4995848;28;20218;-72
2022/01/20 09:42:07;;;;;;;8.23;2.88;;;2.00;99.90;;;1.93;59.74;100997.69;5009279;28;20213;-72
2022/01/20 09:44:52;;;;;;;11.85;4.43;;;2.00;99.90;;;2.10;59.74;100993.41;4995839;28;20213;-73
2022/01/20 09:47:28;;;;;;;11.52;3.10;;;2.00;99.90;;;2.17;59.90;100995.38;5011569;28;20240;-72
2022/01/20 09:50:30;;;;;;;12.82;3.75;;;2.10;99.90;;;2.27;59.62;101000.69;4996157;28;20198;-73
2022/01/20 09:53:26;;;;;;;9.15;3.15;;;2.20;99.90;;;2.28;59.00;101028.19;4995430;28;20571;-73
2022/01/20 09:56:20;;;;;;;16.30;3.92;;;2.30;99.90;;;2.02;59.51;101002.16;4995838;28;20190;-73
2022/01/20 09:58:53;;;;;;;14.80;4.35;;;2.10;99.90;;;2.18;59.02;101006.88;4995578;28;20213;-75
2022/01/20 10:01:43;;;;;;;12.32;3.40;;;2.20;99.90;;;2.13;59.40;101004.63;5013164;28;20170;-74
2022/01/20 10:04:29;;;;;;;17.15;3.97;;;2.20;99.90;;;2.27;59.64;101008.69;4996331;28;20214;-74
2022/01/20 10:07:01;;;;;;;17.50;4.75;;;2.20;99.90;;;2.36;59.50;101001.63;5012035;28;20599;-73
2022/01/20 10:09:39;;;;;;;14.15;3.53;;;2.30;99.90;;;2.44;58.59;100999.03;4995328;28;20225;-73
2022/01/20 10:12:21;;;;;;;10.27;2.60;;;2.40;99.90;;;2.35;59.29;101007.94;5015313;28;20661;-72
2022/01/20 10:14:59;;;;;;;14.77;3.17;;;2.40;99.90;;;2.35;59.43;101002.59;5016856;28;20194;-73
2022/01/20 10:17:50;;;;;;;16.30;3.47;;;2.40;99.90;;;2.34;59.67;101006.25;4999470;28;20701;-73
2022/01/20 10:20:25;;;;;;;7.95;3.50;;;2.30;99.90;;;2.33;59.28;101017.91;4999372;28;20187;-71
2022/01/20 10:22:58;;;;;;;16.58;3.97;;;2.40;99.90;;;2.37;59.39;101011.31;4999853;28;20220;-74
2022/01/20 10:25:46;;;;;;;16.13;3.90;;;2.40;99.90;;;2.22;58.76;101028.81;5016998;28;20637;-76
2022/01/20 10:28:19;;;;;;;8.20;2.83;;;2.30;99.90;;;2.37;58.64;101016.66;4999906;28;20308;-74
2022/01/20 10:33:52;;;;;;;20.48;4.80;;;2.50;99.90;;;2.70;58.69;101013.41;4912686;29;20233;-68
2022/01/20 10:36:26;;;;;;;10.77;3.25;;;2.60;99.90;;;2.65;58.61;101014.84;4916376;29;20241;-66
2022/01/20 10:39:15;;;;;;;12.98;3.83;;;2.60;99.90;;;2.55;58.99;101014.91;4892425;29;20238;-65
2022/01/20 10:41:44;;;;;;;15.77;3.63;;;2.60;99.90;;;2.57;59.25;101011.06;4886072;29;20693;-66
2022/01/20 10:44:17;;;;;;;15.60;3.88;;;2.60;99.90;;;2.57;59.18;101020.91;4907118;29;20218;-68
2022/01/20 10:47:00;;;;;;;15.40;4.50;;;2.60;99.90;;;2.55;59.58;101013.06;5018600;23;20207;-71
2022/01/20 10:49:37;;;;;;;18.35;6.05;;;2.60;99.90;;;2.54;60.01;101015.88;4975912;28;20646;-71
2022/01/20 10:52:15;;;;;;;13.07;3.33;;;2.50;99.90;;;2.45;59.86;101019.44;4969593;28;20254;-69
2022/01/20 10:54:48;;;;;;;19.77;4.22;;;2.50;99.90;;;2.39;59.95;101018.19;4970524;28;20286;-71
2022/01/20 10:57:29;;;;;;;13.90;3.83;;;2.50;99.90;;;2.42;59.56;101017.06;4961385;28;20234;-71
2022/01/20 11:00:02;;;;;;;13.55;3.67;;;2.50;99.90;;;2.44;59.51;101018.59;4964086;28;20191;-71
2022/01/20 11:03:08;;;;;;;13.55;3.65;;;2.50;99.90;;;2.82;59.59;101006.88;4968387;28;20595;-71
2022/01/20 11:05:39;;;;;;;18.48;4.20;;;2.70;99.90;;;2.79;58.83;101015.19;4980625;28;20212;-71
2022/01/20 11:08:12;;;;;;;11.90;3.50;;;2.80;99.90;;;2.74;59.31;101017.47;4979756;28;20218;-69
2022/01/20 11:10:42;;;;;;;13.70;3.90;;;2.70;99.90;;;2.72;59.13;101016.75;4975559;28;20196;-69
2022/01/20 11:13:49;;;;;;;15.55;3.65;;;2.70;99.90;;;2.62;58.83;101002.59;4959203;28;20250;-71
2022/01/20 11:16:21;;;;;;;14.32;3.63;;;2.70;99.90;;;2.62;59.01;101011.47;4960877;28;20337;-69
2022/01/20 11:18:50;;;;;;;13.18;3.80;;;2.60;99.90;;;2.69;58.76;101009.06;4961158;28;20294;-69
2022/01/20 11:21:25;;;;;;;13.57;4.25;;;2.70;99.90;;;2.60;57.74;101012.63;4964539;28;20227;-69
2022/01/20 11:23:56;;;;;;;16.92;3.00;;;2.70;99.90;;;2.56;57.57;101000.56;4946724;29;20207;-71
2022/01/20 11:26:57;;;;;;;13.32;4.10;;;2.60;99.90;;;2.46;57.86;101002.44;4964387;28;20581;-71
2022/01/20 11:29:45;;;;;;;16.27;3.88;;;2.50;99.90;;;2.68;57.72;101004.69;4960306;28;20552;-70
2022/01/20 11:32:35;;;;;;;19.17;3.28;;;2.60;99.90;;;2.68;57.55;101018.06;4972807;28;20203;-73
2022/01/20 11:35:42;;;;;;;12.27;4.15;;;2.70;99.90;;;2.74;56.73;101014.78;4959578;28;20271;-68
2022/01/20 11:38:13;;;;;;;12.15;4.68;;;2.80;99.90;;;2.93;57.36;101012.00;4973994;28;20577;-70
2022/01/20 11:40:55;;;;;;;10.15;3.03;;;2.80;99.90;;;3.26;56.59;101023.03;4976795;28;20226;-71
2022/01/20 11:43:36;;;;;;;15.63;4.85;;;3.10;99.90;;;3.10;56.21;101023.72;4977569;28;20218;-70